메인 페이지
METAR-TAF:

METAR-TAF

공항 :

말레 국제공항

말레, 몰디브

위도: 04-12N, 경도: 073-32E, 고도: 2m

현재 날씨관측

예보는 53분 전, 20:00시(UTC)에 발표되었습니다.
서남서8kt
온도 28°C
습도 79%
기압 1010 hPa
시정 10km 이상
고도 1800ft 상공 구름 조금
고도 27000ft 상공 구름 많음

METAR: VRMM 202000Z 24008KT 9999 FEW018 BKN270 28/24 Q1010 NOSIG

시각: 01:53 (20:53 UTC)

예보

예보는 3 시간 53분 전, 17:00시(UTC)에 발표되었습니다.
예보 대상 시간: 20일 18시부터 21일 24시까지 (UTC)
서남서14kt
시정 10km 이상
고도 1700ft 상공 구름 조금, 타워링 적운.
일시적
20일 15시부터 20일 21시까지 (UTC)
고도 1800ft 상공 구름 조금, 적란운.

TAF: VRMM 201700Z 2018/2124 25014KT 9999 FEW017TCU TEMPO 2015/2021 FEW018CB

4,000개 이상의 공항 관측 자료 및 예보 (METAR 및 TAF 보고).

지도상에서 검색 가능한 기상관측소가 노란 점과 빨간 점으로 표시되어 있습니다.

기상관측소 명을 보려면 표시 위로 마우스를 이동하세요.

날씨 관측과 예보를 보려면 클릭하세요.

지도 변경 : 확대하려면 엑스 표시가 있는 녹색 버튼, 축소하려면 빼기 표시가 있는 녹색 버튼, 다음 페이지의 지도를 보려면 녹색 화살표를 클릭하세요.


METAR-TAF: